createdAt,value
2018-05-25T00:00:09.823Z,14.28
2018-05-25T00:02:38.802Z,14.30
2018-05-25T00:05:07.847Z,14.35
2018-05-25T00:07:36.859Z,14.28
2018-05-25T00:10:05.826Z,14.27
2018-05-25T00:12:34.836Z,14.25
2018-05-25T00:15:03.851Z,14.26
2018-05-25T00:17:32.092Z,14.21
2018-05-25T00:20:00.312Z,14.23
2018-05-25T00:22:28.551Z,14.24
2018-05-25T00:24:56.773Z,14.22
2018-05-25T00:27:25.075Z,14.21
2018-05-25T00:29:53.311Z,14.17
2018-05-25T00:32:21.565Z,14.16
2018-05-25T00:34:49.819Z,14.23
2018-05-25T00:37:18.064Z,14.35
2018-05-25T00:39:47.075Z,14.36
2018-05-25T00:42:16.046Z,14.29
2018-05-25T00:44:45.095Z,14.31
2018-05-25T00:47:13.331Z,14.33
2018-05-25T00:49:41.556Z,14.32
2018-05-25T00:52:09.885Z,14.29
2018-05-25T00:54:38.088Z,14.29
2018-05-25T00:57:06.370Z,14.27
2018-05-25T00:59:34.646Z,14.30
2018-05-25T01:02:02.888Z,14.35
2018-05-25T01:04:31.151Z,14.38
2018-05-25T01:06:59.333Z,14.41
2018-05-25T01:09:27.634Z,14.48
2018-05-25T01:11:55.893Z,14.49
2018-05-25T01:14:24.135Z,14.49
2018-05-25T01:16:52.375Z,14.55
2018-05-25T01:19:20.627Z,14.52
2018-05-25T01:21:49.626Z,14.59
2018-05-25T01:24:18.651Z,14.53
2018-05-25T01:26:46.898Z,14.52
2018-05-25T01:29:15.161Z,14.46
2018-05-25T01:31:43.424Z,14.35
2018-05-25T01:34:11.678Z,14.27
2018-05-25T01:36:39.885Z,14.30
2018-05-25T01:39:08.171Z,14.30
2018-05-25T01:41:37.187Z,14.24
2018-05-25T01:44:06.218Z,14.21
2018-05-25T01:46:34.459Z,14.13
2018-05-25T01:49:02.711Z,14.09
2018-05-25T01:51:30.930Z,14.09
2018-05-25T01:53:59.210Z,14.07
2018-05-25T01:56:27.465Z,13.99
2018-05-25T01:58:55.708Z,13.98
2018-05-25T02:01:24.724Z,13.95
2018-05-25T02:03:53.689Z,13.92
2018-05-25T02:06:22.741Z,13.91
2018-05-25T02:08:51.746Z,13.87
2018-05-25T02:11:20.755Z,13.79
2018-05-25T02:13:49.809Z,13.75
2018-05-25T02:16:19.518Z,13.72
2018-05-25T02:18:47.756Z,13.67
2018-05-25T02:21:16.023Z,13.64
2018-05-25T02:23:44.259Z,13.59
2018-05-25T02:26:12.518Z,13.57
2018-05-25T02:28:40.768Z,13.55
2018-05-25T02:31:09.028Z,13.51
2018-05-25T02:33:37.275Z,13.52
2018-05-25T02:36:05.530Z,13.54
2018-05-25T02:38:33.813Z,13.56
2018-05-25T02:41:02.761Z,13.51
2018-05-25T02:43:31.043Z,13.50
2018-05-25T02:45:59.311Z,13.45
2018-05-25T02:48:27.555Z,13.41
2018-05-25T02:50:55.835Z,13.42
2018-05-25T02:53:24.080Z,13.34
2018-05-25T02:55:52.329Z,13.31
2018-05-25T02:58:20.572Z,13.26
2018-05-25T03:00:48.847Z,13.27
2018-05-25T03:03:17.085Z,13.21
2018-05-25T03:05:46.116Z,13.21
2018-05-25T03:08:14.376Z,13.26
2018-05-25T03:10:43.988Z,13.29
2018-05-25T03:13:12.227Z,13.26
2018-05-25T03:15:40.475Z,13.27
2018-05-25T03:18:09.474Z,13.22
2018-05-25T03:20:38.493Z,13.20
2018-05-25T03:23:07.502Z,13.13
2018-05-25T03:25:36.532Z,13.09
2018-05-25T03:28:04.782Z,13.07
2018-05-25T03:30:33.828Z,13.03
2018-05-25T03:33:02.068Z,13.08
2018-05-25T03:35:30.314Z,13.07
2018-05-25T03:37:58.590Z,13.06
2018-05-25T03:40:26.830Z,13.05
2018-05-25T03:42:55.065Z,13.08
2018-05-25T03:45:23.291Z,13.09
2018-05-25T03:47:51.554Z,13.09
2018-05-25T03:50:19.799Z,13.09
2018-05-25T03:52:48.775Z,13.09
2018-05-25T03:55:17.816Z,13.09
2018-05-25T03:57:46.834Z,13.07
2018-05-25T04:00:32.815Z,13.02
2018-05-25T04:03:01.076Z,13.08
2018-05-25T04:05:29.317Z,13.15
2018-05-25T04:07:58.357Z,13.19
2018-05-25T04:10:26.604Z,13.18
2018-05-25T04:12:55.634Z,13.20
2018-05-25T04:15:23.888Z,13.23
2018-05-25T04:17:52.950Z,13.30
2018-05-25T04:20:21.204Z,13.33
2018-05-25T04:22:50.235Z,13.34
2018-05-25T04:25:18.486Z,13.36
2018-05-25T04:27:47.518Z,13.39
2018-05-25T04:30:15.763Z,13.43
2018-05-25T04:32:44.000Z,13.45
2018-05-25T04:35:12.286Z,13.53
2018-05-25T04:37:40.547Z,13.58
2018-05-25T04:40:09.576Z,13.69
2018-05-25T04:42:37.850Z,13.72
2018-05-25T04:45:06.816Z,13.75
2018-05-25T04:47:35.877Z,13.80
2018-05-25T04:50:04.123Z,14.07
2018-05-25T04:52:32.441Z,15.91
2018-05-25T04:55:01.410Z,17.89
2018-05-25T04:57:30.466Z,18.68
2018-05-25T04:59:58.752Z,19.11
2018-05-25T05:02:26.984Z,19.40
2018-05-25T05:04:55.288Z,19.35
2018-05-25T05:07:23.491Z,19.87
2018-05-25T05:09:51.747Z,19.85
2018-05-25T05:12:19.987Z,19.88
2018-05-25T05:14:49.000Z,19.81
2018-05-25T05:17:18.003Z,20.31
2018-05-25T05:19:47.015Z,20.29
2018-05-25T05:22:15.251Z,20.28
2018-05-25T05:24:43.511Z,20.26
2018-05-25T05:27:11.800Z,20.36
2018-05-25T05:29:40.797Z,20.49
2018-05-25T05:32:09.023Z,20.38
2018-05-25T05:34:37.286Z,20.46
2018-05-25T05:37:05.519Z,19.98
2018-05-25T05:39:33.759Z,20.26
2018-05-25T05:42:02.014Z,20.19
2018-05-25T05:44:31.012Z,20.01
2018-05-25T05:47:00.004Z,20.18
2018-05-25T05:49:28.271Z,20.27
2018-05-25T05:51:56.495Z,20.23
2018-05-25T05:54:24.785Z,20.36
2018-05-25T05:56:53.019Z,20.37
2018-05-25T05:59:21.272Z,20.20
2018-05-25T06:01:50.236Z,20.48
2018-05-25T06:04:19.330Z,20.22
2018-05-25T06:06:48.291Z,20.47
2018-05-25T06:09:17.319Z,20.59
2018-05-25T06:11:45.560Z,20.82
2018-05-25T06:14:13.816Z,20.27
2018-05-25T06:16:42.153Z,20.28
2018-05-25T06:19:10.387Z,20.90
2018-05-25T06:21:38.678Z,20.73
2018-05-25T06:24:06.902Z,20.63
2018-05-25T06:26:35.158Z,20.75
2018-05-25T06:29:03.387Z,21.15
2018-05-25T06:31:31.647Z,20.99
2018-05-25T06:34:00.650Z,20.30
2018-05-25T06:36:28.942Z,20.55
2018-05-25T06:38:57.192Z,20.79
2018-05-25T06:41:26.219Z,21.26
2018-05-25T06:43:55.178Z,21.41
2018-05-25T06:46:23.412Z,21.13
2018-05-25T06:48:51.684Z,21.11
2018-05-25T06:51:19.952Z,21.06
2018-05-25T06:53:49.057Z,21.22
2018-05-25T06:56:17.333Z,20.91
2018-05-25T06:58:45.539Z,20.38
2018-05-25T07:01:13.871Z,20.34
2018-05-25T07:03:42.078Z,20.79
2018-05-25T07:06:11.148Z,20.49
2018-05-25T07:08:39.381Z,20.86
2018-05-25T07:11:07.623Z,20.33
2018-05-25T07:13:35.849Z,21.03
2018-05-25T07:16:04.109Z,21.25
2018-05-25T07:18:32.393Z,21.59
2018-05-25T07:21:00.614Z,21.61
2018-05-25T07:23:29.641Z,21.70
2018-05-25T07:25:57.898Z,22.20
2018-05-25T07:28:26.162Z,21.93
2018-05-25T07:30:54.440Z,21.06
2018-05-25T07:33:22.753Z,20.82
2018-05-25T07:35:51.762Z,21.31
2018-05-25T07:38:20.027Z,21.39
2018-05-25T07:40:49.041Z,21.41
2018-05-25T07:43:17.307Z,21.99
2018-05-25T07:45:46.320Z,21.85
2018-05-25T07:48:15.366Z,22.35
2018-05-25T07:50:43.603Z,22.00
2018-05-25T07:53:11.883Z,22.36
2018-05-25T07:55:40.130Z,22.73
2018-05-25T07:58:08.391Z,22.47
2018-05-25T08:00:37.415Z,22.73
2018-05-25T08:03:05.679Z,21.92
2018-05-25T08:05:34.691Z,22.20
2018-05-25T08:08:03.717Z,22.86
2018-05-25T08:10:32.755Z,22.49
2018-05-25T08:13:00.995Z,22.03
2018-05-25T08:15:30.012Z,23.11
2018-05-25T08:17:59.056Z,22.83
2018-05-25T08:20:27.308Z,22.21
2018-05-25T08:22:55.571Z,22.97
2018-05-25T08:25:24.588Z,22.96
2018-05-25T08:27:53.614Z,22.59
2018-05-25T08:30:21.940Z,21.86
2018-05-25T08:32:50.114Z,22.26
2018-05-25T08:35:18.367Z,22.39
2018-05-25T08:37:47.390Z,23.06
2018-05-25T08:40:15.627Z,23.28
2018-05-25T08:42:43.898Z,23.37
2018-05-25T08:45:12.143Z,23.91
2018-05-25T08:47:40.362Z,23.72
2018-05-25T08:50:08.611Z,24.09
2018-05-25T08:52:36.953Z,24.09
2018-05-25T08:55:05.223Z,23.51
2018-05-25T08:57:33.481Z,23.24
2018-05-25T09:00:02.495Z,23.93
2018-05-25T09:02:31.517Z,23.12
2018-05-25T09:04:59.755Z,23.64
2018-05-25T09:07:28.016Z,23.59
2018-05-25T09:09:56.291Z,23.53
2018-05-25T09:12:24.532Z,23.69
2018-05-25T09:14:52.795Z,24.40
2018-05-25T09:17:21.003Z,23.81
2018-05-25T09:19:49.306Z,23.43
2018-05-25T09:22:18.323Z,24.54
2018-05-25T09:24:47.314Z,24.68
2018-05-25T09:27:15.587Z,24.03
2018-05-25T09:29:43.851Z,24.14
2018-05-25T09:32:12.082Z,24.78
2018-05-25T09:34:41.120Z,24.82
2018-05-25T09:37:09.363Z,24.95
2018-05-25T09:39:37.607Z,24.76
2018-05-25T09:42:06.725Z,23.52
2018-05-25T09:44:35.019Z,25.00
2018-05-25T09:47:03.251Z,23.82
2018-05-25T09:49:32.275Z,24.10
2018-05-25T09:52:00.519Z,24.09
2018-05-25T09:54:28.787Z,24.60
2018-05-25T09:57:01.619Z,24.62
2018-05-25T09:59:29.871Z,24.53
2018-05-25T10:01:58.160Z,25.46
2018-05-25T10:04:26.434Z,25.31
2018-05-25T10:06:54.670Z,24.05
2018-05-25T10:09:22.941Z,25.19
2018-05-25T10:11:51.191Z,24.53
2018-05-25T10:14:19.447Z,24.82
2018-05-25T10:16:47.728Z,24.93
2018-05-25T10:19:15.931Z,25.09
2018-05-25T10:21:44.182Z,25.87
2018-05-25T10:24:13.226Z,25.99
2018-05-25T10:26:42.261Z,25.54
2018-05-25T10:29:10.499Z,25.26
2018-05-25T10:31:38.718Z,25.59
2018-05-25T10:34:06.994Z,25.05
2018-05-25T10:36:35.246Z,26.20
2018-05-25T10:39:03.479Z,24.76
2018-05-25T10:41:32.466Z,25.35
2018-05-25T10:44:00.767Z,25.35
2018-05-25T10:46:29.808Z,26.70
2018-05-25T10:48:58.059Z,26.56
2018-05-25T10:51:26.320Z,26.45
2018-05-25T10:53:54.556Z,25.86
2018-05-25T10:56:24.173Z,25.16
2018-05-25T10:58:53.175Z,24.77
2018-05-25T11:01:22.944Z,25.67
2018-05-25T11:03:51.153Z,26.24
2018-05-25T11:06:20.211Z,25.48
2018-05-25T11:08:48.447Z,25.45
2018-05-25T11:11:16.727Z,25.73
2018-05-25T11:13:44.963Z,25.89
2018-05-25T11:16:14.009Z,25.34
2018-05-25T11:18:42.243Z,25.86
2018-05-25T11:21:10.513Z,26.15
2018-05-25T11:23:39.514Z,26.05
2018-05-25T11:26:07.771Z,25.99
2018-05-25T11:28:36.042Z,26.97
2018-05-25T11:31:05.059Z,26.22
2018-05-25T11:33:33.305Z,26.53
2018-05-25T11:36:01.572Z,26.94
2018-05-25T11:38:30.572Z,26.37
2018-05-25T11:40:58.891Z,27.31
2018-05-25T11:43:27.127Z,27.58
2018-05-25T11:45:55.385Z,26.15
2018-05-25T11:48:24.407Z,26.20
2018-05-25T11:50:52.645Z,25.94
2018-05-25T11:53:20.899Z,27.06
2018-05-25T11:55:49.140Z,26.96
2018-05-25T11:58:18.931Z,25.94
2018-05-25T12:00:47.137Z,26.02
2018-05-25T12:03:16.195Z,27.03
2018-05-25T12:05:45.242Z,27.23
2018-05-25T12:08:14.267Z,27.39
2018-05-25T12:10:42.511Z,26.06
2018-05-25T12:13:10.774Z,26.18
2018-05-25T12:15:39.786Z,26.73
2018-05-25T12:18:08.821Z,26.56
2018-05-25T12:20:37.065Z,27.07
2018-05-25T12:23:06.143Z,26.43
2018-05-25T12:25:34.327Z,26.17
2018-05-25T12:28:02.601Z,26.56
2018-05-25T12:30:31.613Z,26.31
2018-05-25T12:32:59.987Z,26.65
2018-05-25T12:35:28.338Z,26.81
2018-05-25T12:37:57.367Z,26.77
2018-05-25T12:40:25.621Z,26.98
2018-05-25T12:42:55.396Z,27.51
2018-05-25T12:45:24.776Z,27.66
2018-05-25T12:47:53.804Z,27.92
2018-05-25T12:50:22.051Z,27.95
2018-05-25T12:52:50.310Z,28.10
2018-05-25T12:55:18.565Z,27.13
2018-05-25T12:57:46.879Z,27.90
2018-05-25T13:00:15.114Z,26.98
2018-05-25T13:02:43.399Z,28.03
2018-05-25T13:05:11.656Z,27.89
2018-05-25T13:07:39.917Z,27.37
2018-05-25T13:10:08.171Z,28.02
2018-05-25T13:12:36.443Z,27.91
2018-05-25T13:15:04.692Z,27.52
2018-05-25T13:17:32.928Z,27.94
2018-05-25T13:20:01.223Z,28.41
2018-05-25T13:22:29.512Z,27.21
2018-05-25T13:24:57.770Z,28.12
2018-05-25T13:27:26.807Z,28.01
2018-05-25T13:29:55.084Z,27.47
2018-05-25T13:32:23.330Z,27.85
2018-05-25T13:34:51.579Z,27.26
2018-05-25T13:37:19.819Z,27.77
2018-05-25T13:39:48.087Z,27.36
2018-05-25T13:42:16.318Z,26.74
2018-05-25T13:44:44.586Z,26.87
2018-05-25T13:47:12.828Z,26.73
2018-05-25T13:49:41.892Z,27.56
2018-05-25T13:52:10.136Z,26.67
2018-05-25T13:54:39.156Z,26.59
2018-05-25T13:57:07.387Z,27.32
2018-05-25T13:59:36.399Z,27.06
2018-05-25T14:02:05.445Z,27.46
2018-05-25T14:04:34.473Z,27.13
2018-05-25T14:07:02.714Z,27.33
2018-05-25T14:09:30.988Z,27.44
2018-05-25T14:11:59.230Z,27.88
2018-05-25T14:14:27.490Z,27.78
2018-05-25T14:16:55.743Z,27.23
2018-05-25T14:19:24.007Z,27.55
2018-05-25T14:21:52.237Z,27.36
2018-05-25T14:24:20.567Z,27.88
2018-05-25T14:26:49.579Z,28.38
2018-05-25T14:29:17.839Z,27.87
2018-05-25T14:31:46.119Z,26.92
2018-05-25T14:34:14.385Z,27.07
2018-05-25T14:36:42.658Z,27.26
2018-05-25T14:39:11.118Z,26.86
2018-05-25T14:41:39.387Z,27.62
2018-05-25T14:44:07.627Z,27.51
2018-05-25T14:46:35.883Z,27.58
2018-05-25T14:49:05.265Z,27.91
2018-05-25T14:51:33.541Z,27.47
2018-05-25T14:54:01.842Z,27.21
2018-05-25T14:56:30.021Z,27.23
2018-05-25T14:58:58.357Z,26.53
2018-05-25T15:01:26.589Z,26.70
2018-05-25T15:03:54.846Z,27.67
2018-05-25T15:06:24.231Z,26.74
2018-05-25T15:08:52.479Z,26.81
2018-05-25T15:11:20.737Z,27.71
2018-05-25T15:13:48.975Z,27.66
2018-05-25T15:16:17.199Z,26.98
2018-05-25T15:18:45.445Z,28.01
2018-05-25T15:21:14.506Z,27.55
2018-05-25T15:23:43.554Z,27.69
2018-05-25T15:26:12.567Z,27.17
2018-05-25T15:28:40.815Z,27.45
2018-05-25T15:31:09.067Z,27.37
2018-05-25T15:33:37.327Z,27.28
2018-05-25T15:36:05.586Z,27.09
2018-05-25T15:38:33.826Z,27.39
2018-05-25T15:41:02.084Z,26.92
2018-05-25T15:43:30.327Z,26.75
2018-05-25T15:45:59.343Z,26.68
2018-05-25T15:48:28.362Z,26.92
2018-05-25T15:50:56.610Z,26.78
2018-05-25T15:53:24.860Z,26.76
2018-05-25T15:55:53.130Z,27.27
2018-05-25T15:58:21.379Z,26.93
2018-05-25T16:00:50.416Z,26.76
2018-05-25T16:03:18.647Z,26.50
2018-05-25T16:05:47.680Z,26.58
2018-05-25T16:08:15.927Z,26.77
2018-05-25T16:10:44.972Z,26.58
2018-05-25T16:13:13.201Z,26.58
2018-05-25T16:15:41.483Z,26.12
2018-05-25T16:18:09.726Z,26.37
2018-05-25T16:20:37.956Z,26.50
2018-05-25T16:23:06.306Z,26.61
2018-05-25T16:25:34.593Z,26.45
2018-05-25T16:28:02.858Z,26.39
2018-05-25T16:30:31.090Z,26.30
2018-05-25T16:32:59.338Z,26.64
2018-05-25T16:35:27.595Z,26.60
2018-05-25T16:37:55.820Z,26.51
2018-05-25T16:40:24.865Z,26.48
2018-05-25T16:42:53.900Z,26.29
2018-05-25T16:45:22.117Z,25.98
2018-05-25T16:47:50.435Z,26.56
2018-05-25T16:50:18.744Z,27.69
2018-05-25T16:52:46.940Z,27.74
2018-05-25T16:55:15.919Z,27.05
2018-05-25T16:57:44.214Z,27.68
2018-05-25T17:00:12.462Z,28.20
2018-05-25T17:02:40.719Z,27.56
2018-05-25T17:05:08.970Z,27.86
2018-05-25T17:07:37.523Z,27.58
2018-05-25T17:10:05.778Z,27.91
2018-05-25T17:12:35.599Z,27.67
2018-05-25T17:15:03.786Z,28.10
2018-05-25T17:17:32.053Z,28.09
2018-05-25T17:20:00.283Z,28.84
2018-05-25T17:22:28.569Z,27.95
2018-05-25T17:24:56.775Z,26.66
2018-05-25T17:27:25.139Z,26.24
2018-05-25T17:29:54.864Z,25.79
2018-05-25T17:32:23.099Z,25.85
2018-05-25T17:34:52.223Z,26.04
2018-05-25T17:37:21.238Z,25.62
2018-05-25T17:39:50.330Z,25.34
2018-05-25T17:42:18.566Z,25.40
2018-05-25T17:44:48.347Z,25.27
2018-05-25T17:47:16.667Z,25.06
2018-05-25T17:49:45.677Z,24.87
2018-05-25T17:52:15.420Z,24.75
2018-05-25T17:54:43.810Z,24.64
2018-05-25T17:57:12.824Z,24.56
2018-05-25T17:59:41.093Z,24.43
2018-05-25T18:02:10.057Z,24.35
2018-05-25T18:04:39.133Z,24.20
2018-05-25T18:07:07.415Z,24.19
2018-05-25T18:09:37.196Z,24.08
2018-05-25T18:12:05.431Z,24.11
2018-05-25T18:14:33.702Z,24.04
2018-05-25T18:17:02.731Z,24.12
2018-05-25T18:19:30.995Z,24.35
2018-05-25T18:22:00.026Z,24.12
2018-05-25T18:24:28.287Z,23.82
2018-05-25T18:26:57.294Z,23.74
2018-05-25T18:29:26.353Z,23.58
2018-05-25T18:31:54.587Z,23.38
2018-05-25T18:34:23.612Z,23.27
2018-05-25T18:36:51.863Z,23.16
2018-05-25T18:39:20.124Z,23.10
2018-05-25T18:41:48.336Z,22.98
2018-05-25T18:44:17.367Z,22.88
2018-05-25T18:46:45.639Z,22.72
2018-05-25T18:49:13.872Z,22.60
2018-05-25T18:51:42.173Z,22.53
2018-05-25T18:54:29.088Z,22.40
2018-05-25T18:56:57.311Z,22.25
2018-05-25T18:59:25.596Z,22.24
2018-05-25T19:01:53.862Z,22.09
2018-05-25T19:04:22.091Z,22.03
2018-05-25T19:06:50.394Z,21.75
2018-05-25T19:09:18.627Z,21.56
2018-05-25T19:11:46.947Z,21.41
2018-05-25T19:14:15.157Z,21.27
2018-05-25T19:16:43.455Z,21.17
2018-05-25T19:19:11.709Z,21.32
2018-05-25T19:21:39.976Z,21.18
2018-05-25T19:24:08.217Z,21.10
2018-05-25T19:26:36.470Z,21.06
2018-05-25T19:29:04.729Z,20.99
2018-05-25T19:31:32.978Z,20.92
2018-05-25T19:34:01.179Z,20.86
2018-05-25T19:36:29.474Z,20.74
2018-05-25T19:38:58.524Z,20.67
2018-05-25T19:41:26.783Z,20.60
2018-05-25T19:43:55.047Z,20.50
2018-05-25T19:46:24.083Z,20.42
2018-05-25T19:48:52.315Z,20.28
2018-05-25T19:51:20.580Z,20.23
2018-05-25T19:53:48.824Z,20.13
2018-05-25T19:56:17.083Z,20.09
2018-05-25T19:58:45.331Z,20.02
2018-05-25T20:01:13.591Z,19.97
2018-05-25T20:03:42.612Z,19.91
2018-05-25T20:06:11.632Z,19.81
2018-05-25T20:08:39.838Z,19.83
2018-05-25T20:11:08.143Z,19.79
2018-05-25T20:13:36.414Z,19.74
2018-05-25T20:16:04.680Z,19.67
2018-05-25T20:18:32.874Z,19.56
2018-05-25T20:21:01.110Z,19.53
2018-05-25T20:23:30.171Z,19.51
2018-05-25T20:25:58.419Z,19.42
2018-05-25T20:28:26.780Z,19.29
2018-05-25T20:30:55.725Z,19.30
2018-05-25T20:33:25.496Z,19.24
2018-05-25T20:35:53.725Z,19.29
2018-05-25T20:38:21.991Z,19.22
2018-05-25T20:40:50.256Z,19.12
2018-05-25T20:43:18.501Z,19.02
2018-05-25T20:45:46.739Z,19.02
2018-05-25T20:48:15.010Z,19.00
2018-05-25T20:50:43.242Z,19.03
2018-05-25T20:53:11.508Z,18.98
2018-05-25T20:55:39.744Z,18.95
2018-05-25T20:58:07.995Z,18.87
2018-05-25T21:00:36.244Z,18.93
2018-05-25T21:03:04.504Z,18.83
2018-05-25T21:05:32.751Z,18.78
2018-05-25T21:08:01.002Z,18.74
2018-05-25T21:10:30.003Z,18.81
2018-05-25T21:12:58.987Z,18.76
2018-05-25T21:15:27.262Z,18.79
2018-05-25T21:17:55.518Z,18.72
2018-05-25T21:20:23.802Z,18.72
2018-05-25T21:22:52.059Z,18.68
2018-05-25T21:25:21.075Z,18.72
2018-05-25T21:27:50.092Z,18.63
2018-05-25T21:30:18.336Z,18.68
2018-05-25T21:32:46.576Z,18.79
2018-05-25T21:35:14.783Z,18.75
2018-05-25T21:37:43.083Z,18.65
2018-05-25T21:40:11.292Z,18.60
2018-05-25T21:42:39.602Z,18.65
2018-05-25T21:45:07.835Z,18.63
2018-05-25T21:47:36.098Z,18.70
2018-05-25T21:50:05.851Z,18.69
2018-05-25T21:52:34.092Z,18.65
2018-05-25T21:55:03.117Z,18.57
2018-05-25T21:57:31.375Z,18.51
2018-05-25T21:59:59.631Z,18.43
2018-05-25T22:02:27.832Z,18.37
2018-05-25T22:04:57.089Z,18.31
2018-05-25T22:07:26.120Z,18.26
2018-05-25T22:09:54.344Z,18.20
2018-05-25T22:12:23.320Z,18.10
2018-05-25T22:14:51.547Z,18.06
2018-05-25T22:17:20.592Z,18.07
2018-05-25T22:19:48.805Z,18.14
2018-05-25T22:22:17.081Z,18.11
2018-05-25T22:24:45.339Z,18.09
2018-05-25T22:27:14.716Z,17.97
2018-05-25T22:29:42.979Z,18.01
2018-05-25T22:32:11.226Z,17.99
2018-05-25T22:34:40.247Z,17.89
2018-05-25T22:37:09.251Z,17.76
2018-05-25T22:39:38.291Z,17.61
2018-05-25T22:42:05.747Z,17.45
2018-05-25T22:44:51.903Z,17.35
2018-05-25T22:47:37.978Z,17.27
2018-05-25T22:50:24.004Z,17.27
2018-05-25T22:52:56.883Z,17.24
2018-05-25T22:55:25.179Z,17.20
2018-05-25T22:57:53.376Z,17.11
2018-05-25T23:00:21.663Z,17.06
2018-05-25T23:02:49.902Z,17.03
2018-05-25T23:05:18.951Z,17.05
2018-05-25T23:07:47.182Z,17.22
2018-05-25T23:10:16.415Z,17.21
2018-05-25T23:12:44.655Z,17.23
2018-05-25T23:15:12.955Z,17.24
2018-05-25T23:17:41.157Z,17.22
2018-05-25T23:20:09.516Z,17.07
2018-05-25T23:22:37.755Z,16.94
2018-05-25T23:25:06.778Z,16.91
2018-05-25T23:27:35.020Z,16.89
2018-05-25T23:30:03.274Z,16.84
2018-05-25T23:32:31.511Z,16.80
2018-05-25T23:34:59.770Z,16.77
2018-05-25T23:37:28.024Z,16.76
2018-05-25T23:39:56.300Z,16.71
2018-05-25T23:42:25.607Z,16.58
2018-05-25T23:44:54.635Z,16.70
2018-05-25T23:47:22.875Z,16.72
2018-05-25T23:49:51.140Z,16.66
2018-05-25T23:52:19.383Z,16.58
2018-05-25T23:54:48.358Z,16.44
2018-05-25T23:57:16.631Z,16.36
2018-05-25T23:59:45.663Z,16.30
